Time;durP1;ratioP1;P1;durP2;ratioP2;P2;SDS_P1;SDS_P2;PMS_P1;PMS_P2;Temp;Humidity;BMP_temperature;BMP_pressure;BME280_temperature;BME280_humidity;BME280_pressure;Samples;Min_cycle;Max_cycle;Signal;HPM_P1;HPM_P2
2023/04/11 00:02:05;;;;;;;8.07;7.28;;;22.40;68.10;;;;;;6335803;27;89142;-70
2023/04/11 00:05:08;;;;;;;8.10;7.30;;;22.40;68.10;;;;;;6349243;27;89258;-71
2023/04/11 00:08:10;;;;;;;7.88;7.18;;;22.40;68.20;;;;;;6346580;27;89393;-71
2023/04/11 00:11:14;;;;;;;7.70;7.00;;;22.40;68.20;;;;;;6355813;27;89119;-70
2023/04/11 00:14:16;;;;;;;8.20;7.40;;;22.40;68.20;;;;;;6343528;27;87960;-70
2023/04/11 00:17:18;;;;;;;8.05;7.25;;;22.40;68.20;;;;;;6351426;27;89147;-70
2023/04/11 00:20:20;;;;;;;8.02;7.22;;;22.40;68.10;;;;;;6351557;27;87294;-71
2023/04/11 00:23:22;;;;;;;8.18;7.45;;;22.40;68.20;;;;;;6351198;27;89405;-70
2023/04/11 00:26:26;;;;;;;7.88;7.10;;;22.40;68.20;;;;;;6350350;27;89001;-71
2023/04/11 00:29:28;;;;;;;8.68;7.78;;;22.40;68.20;;;;;;6335055;27;90198;-70
2023/04/11 00:32:30;;;;;;;7.78;7.07;;;22.40;68.20;;;;;;6358469;27;89241;-70
2023/04/11 00:35:34;;;;;;;8.57;7.78;;;22.40;68.20;;;;;;6355110;27;89300;-70
2023/04/11 00:38:37;;;;;;;8.20;7.40;;;22.40;68.20;;;;;;6348671;27;89097;-69
2023/04/11 00:41:40;;;;;;;7.70;7.00;;;22.30;68.20;;;;;;6346783;27;89152;-70
2023/04/11 00:44:42;;;;;;;8.65;7.85;;;22.30;68.20;;;;;;6350123;27;89194;-70
2023/04/11 00:47:44;;;;;;;7.97;7.25;;;22.40;68.30;;;;;;6345829;27;89078;-70
2023/04/11 00:50:46;;;;;;;7.15;6.47;;;22.30;68.10;;;;;;6353288;27;88417;-70
2023/04/11 00:53:48;;;;;;;8.07;7.28;;;22.40;68.20;;;;;;6344222;27;89010;-69
2023/04/11 00:56:52;;;;;;;7.90;7.20;;;22.30;68.10;;;;;;6343141;27;89046;-70
2023/04/11 00:59:54;;;;;;;8.52;7.70;;;22.30;68.10;;;;;;6333562;27;89951;-70
2023/04/11 01:02:56;;;;;;;7.78;7.07;;;22.30;68.10;;;;;;6348766;27;89024;-70
2023/04/11 01:05:58;;;;;;;7.75;7.05;;;22.30;68.10;;;;;;6358499;27;88242;-70
2023/04/11 01:09:03;;;;;;;7.88;7.18;;;22.30;68.10;;;;;;6358122;27;87937;-69
2023/04/11 01:12:07;;;;;;;7.30;6.60;;;22.30;68.10;;;;;;6354722;27;88045;-70
2023/04/11 01:15:10;;;;;;;8.60;7.80;;;22.30;68.10;;;;;;6332550;27;89055;-70
2023/04/11 01:18:12;;;;;;;7.72;7.03;;;22.30;68.10;;;;;;6346302;27;89047;-70
2023/04/11 01:21:16;;;;;;;7.78;7.07;;;22.30;68.20;;;;;;6343797;27;87455;-71
2023/04/11 01:24:19;;;;;;;8.32;7.53;;;22.20;68.10;;;;;;6340166;27;89364;-70
2023/04/11 01:27:21;;;;;;;8.25;7.45;;;22.20;68.10;;;;;;6343799;27;89107;-70
2023/04/11 01:30:23;;;;;;;7.68;6.93;;;22.30;68.10;;;;;;6342650;27;90247;-70
2023/04/11 01:33:25;;;;;;;7.35;6.68;;;22.30;68.20;;;;;;6343387;27;88106;-71
2023/04/11 01:36:28;;;;;;;7.70;7.00;;;22.30;68.10;;;;;;6340469;27;89046;-70
2023/04/11 01:39:32;;;;;;;7.20;6.53;;;22.20;68.10;;;;;;6345615;27;89102;-70
2023/04/11 01:42:34;;;;;;;7.88;7.18;;;22.30;68.10;;;;;;6338295;27;89170;-70
2023/04/11 01:45:37;;;;;;;7.63;6.93;;;22.20;68.10;;;;;;6332774;27;89112;-70
2023/04/11 01:48:39;;;;;;;8.13;7.32;;;22.20;68.10;;;;;;6345657;27;89034;-70
2023/04/11 01:51:41;;;;;;;6.93;6.32;;;22.20;68.10;;;;;;6346193;27;88066;-71
2023/04/11 01:54:44;;;;;;;7.63;6.93;;;22.20;68.20;;;;;;6348505;27;89202;-70
2023/04/11 01:57:46;;;;;;;7.43;6.72;;;22.20;68.20;;;;;;6349869;27;89165;-71
2023/04/11 02:00:48;;;;;;;7.10;6.43;;;22.20;68.20;;;;;;6343952;27;90010;-71
2023/04/11 02:03:51;;;;;;;7.18;6.55;;;22.20;68.20;;;;;;6348279;27;90424;-71
2023/04/11 02:06:53;;;;;;;7.35;6.65;;;22.20;68.20;;;;;;6359168;27;89449;-71
2023/04/11 02:09:56;;;;;;;6.65;6.05;;;22.20;68.10;;;;;;6336879;27;89138;-71
2023/04/11 02:12:58;;;;;;;6.78;6.18;;;22.20;68.10;;;;;;6350176;27;88819;-71
2023/04/11 02:16:06;;;;;;;6.60;6.00;;;22.20;68.10;;;;;;6346530;27;88968;-71
2023/04/11 02:19:08;;;;;;;7.00;6.30;;;22.20;68.10;;;;;;6341576;27;89359;-72
2023/04/11 02:22:10;;;;;;;7.20;6.50;;;22.20;68.10;;;;;;6344844;27;88702;-71
2023/04/11 02:25:13;;;;;;;7.20;6.50;;;22.20;68.20;;;;;;6356859;27;88071;-71
2023/04/11 02:28:15;;;;;;;7.30;6.60;;;22.10;68.10;;;;;;6341106;27;89017;-71
2023/04/11 02:31:17;;;;;;;6.68;6.07;;;22.10;68.20;;;;;;6345518;27;88928;-71
2023/04/11 02:34:20;;;;;;;7.43;6.72;;;22.20;68.30;;;;;;6338233;27;89028;-71
2023/04/11 02:37:22;;;;;;;7.25;6.55;;;22.10;68.10;;;;;;6346605;27;89387;-70
2023/04/11 02:40:26;;;;;;;6.45;5.85;;;22.20;68.30;;;;;;6347876;27;87994;-71
2023/04/11 02:43:28;;;;;;;6.70;6.00;;;22.10;68.20;;;;;;6347947;27;89123;-71
2023/04/11 02:46:30;;;;;;;6.90;6.30;;;22.20;69.10;;;;;;6335660;27;89491;-71
2023/04/11 02:49:32;;;;;;;6.50;5.90;;;22.10;68.10;;;;;;6336573;27;89404;-71
2023/04/11 02:52:34;;;;;;;7.10;6.50;;;22.10;68.10;;;;;;6348748;27;87369;-70
2023/04/11 02:55:37;;;;;;;8.23;6.70;;;22.10;68.10;;;;;;6349079;27;89423;-71
2023/04/11 02:58:40;;;;;;;7.00;6.38;;;22.10;68.10;;;;;;6358266;27;89101;-72
2023/04/11 03:01:42;;;;;;;6.53;5.93;;;22.10;68.10;;;;;;6350175;27;90246;-71
2023/04/11 03:04:45;;;;;;;6.68;6.07;;;22.10;68.10;;;;;;6347053;27;89309;-71
2023/04/11 03:07:47;;;;;;;6.60;6.00;;;22.10;68.20;;;;;;6352961;27;88837;-71
2023/04/11 03:10:50;;;;;;;6.47;5.90;;;22.10;68.20;;;;;;6353538;27;87998;-70
2023/04/11 03:13:52;;;;;;;6.25;5.68;;;22.10;68.20;;;;;;6357077;27;89253;-71
2023/04/11 03:16:54;;;;;;;5.95;5.45;;;22.10;69.10;;;;;;6340857;27;89275;-70
2023/04/11 03:19:56;;;;;;;6.57;5.97;;;22.10;69.10;;;;;;6336090;27;89188;-71
2023/04/11 03:22:58;;;;;;;6.47;5.88;;;22.10;68.10;;;;;;6336326;27;88355;-71
2023/04/11 03:26:01;;;;;;;6.63;6.03;;;22.10;68.10;;;;;;6340589;27;89088;-70
2023/04/11 03:29:04;;;;;;;6.32;5.72;;;22.10;68.10;;;;;;6337211;27;87917;-71
2023/04/11 03:32:06;;;;;;;5.85;5.35;;;22.10;68.20;;;;;;6348788;27;90066;-70
2023/04/11 03:35:09;;;;;;;6.05;5.53;;;22.10;68.10;;;;;;6342097;27;89310;-70
2023/04/11 03:38:11;;;;;;;5.90;5.40;;;22.10;67.80;;;;;;6345312;27;89219;-70
2023/04/11 03:41:14;;;;;;;5.72;5.22;;;22.10;67.90;;;;;;6355453;27;89138;-70
2023/04/11 03:44:16;;;;;;;6.30;5.70;;;22.00;67.90;;;;;;6334275;27;88744;-71
2023/04/11 03:47:18;;;;;;;5.95;5.45;;;22.00;67.90;;;;;;6347508;27;89054;-70
2023/04/11 03:50:21;;;;;;;5.60;5.10;;;22.10;68.00;;;;;;6334422;27;89137;-70
2023/04/11 03:53:23;;;;;;;5.53;5.03;;;22.10;68.00;;;;;;6356933;27;88042;-70
2023/04/11 03:56:26;;;;;;;5.07;4.57;;;22.10;68.00;;;;;;6359198;27;89157;-70
2023/04/11 03:59:29;;;;;;;5.80;5.30;;;22.10;68.00;;;;;;6334994;27;89079;-70
2023/04/11 04:02:31;;;;;;;5.80;5.30;;;22.10;67.90;;;;;;6343294;27;90052;-71
2023/04/11 04:05:33;;;;;;;5.53;5.03;;;22.10;67.90;;;;;;6358427;27;89085;-71
2023/04/11 04:08:35;;;;;;;5.75;5.25;;;22.20;67.90;;;;;;6338511;27;89157;-70
2023/04/11 04:11:38;;;;;;;5.43;4.93;;;22.20;67.90;;;;;;6345377;27;89101;-71
2023/04/11 04:14:40;;;;;;;5.55;5.05;;;22.20;67.80;;;;;;6343258;27;89544;-71
2023/04/11 04:17:42;;;;;;;5.55;5.05;;;22.20;67.90;;;;;;6349160;27;89165;-71
2023/04/11 04:20:44;;;;;;;5.47;4.97;;;22.20;67.80;;;;;;6356996;27;89277;-71
2023/04/11 04:23:47;;;;;;;5.13;4.68;;;22.20;67.80;;;;;;6356480;27;87399;-70
2023/04/11 04:26:50;;;;;;;5.30;4.80;;;22.20;67.70;;;;;;6359381;27;89119;-71
2023/04/11 04:29:52;;;;;;;4.95;4.55;;;22.20;67.70;;;;;;6349063;27;89105;-70
2023/04/11 04:32:57;;;;;;;5.20;4.70;;;22.20;67.70;;;;;;6350485;27;89765;-71
2023/04/11 04:36:01;;;;;;;5.22;4.72;;;22.20;67.70;;;;;;6350474;27;88977;-72
2023/04/11 04:39:03;;;;;;;5.05;4.65;;;22.30;67.90;;;;;;6339330;27;89095;-71
2023/04/11 04:42:07;;;;;;;5.55;5.05;;;22.30;67.90;;;;;;6349942;27;88991;-71
2023/04/11 04:45:09;;;;;;;5.35;4.82;;;22.30;67.90;;;;;;6340949;27;89006;-71
2023/04/11 04:48:13;;;;;;;5.07;4.57;;;22.30;67.80;;;;;;6349779;27;89134;-71
2023/04/11 04:51:15;;;;;;;5.35;4.65;;;22.30;67.80;;;;;;6357961;27;89037;-70
2023/04/11 04:54:18;;;;;;;5.00;4.60;;;22.30;67.80;;;;;;6353432;27;88400;-71
2023/04/11 04:57:21;;;;;;;4.80;4.40;;;22.30;67.70;;;;;;6333400;27;89307;-71
2023/04/11 05:00:23;;;;;;;4.80;4.40;;;22.40;67.80;;;;;;6343870;27;89618;-71
2023/04/11 05:03:25;;;;;;;4.68;4.28;;;22.40;67.70;;;;;;6347297;27;90039;-72
2023/04/11 05:06:28;;;;;;;4.10;3.80;;;22.30;67.70;;;;;;6345599;27;89111;-71
2023/04/11 05:09:30;;;;;;;5.03;4.53;;;22.40;67.70;;;;;;6338449;27;89354;-72
2023/04/11 05:12:34;;;;;;;4.55;4.15;;;22.30;67.70;;;;;;6332279;27;89039;-71
2023/04/11 05:15:36;;;;;;;4.80;4.40;;;22.40;67.70;;;;;;6343898;27;89432;-70
2023/04/11 05:18:38;;;;;;;4.68;4.15;;;22.40;67.60;;;;;;6347955;27;89041;-71
2023/04/11 05:21:40;;;;;;;4.75;4.20;;;22.40;67.60;;;;;;6339122;27;89225;-71
2023/04/11 05:24:42;;;;;;;4.47;4.07;;;22.50;67.60;;;;;;6352719;27;88302;-71
2023/04/11 05:27:45;;;;;;;4.55;4.15;;;22.50;67.60;;;;;;6344362;27;89184;-71
2023/04/11 05:30:47;;;;;;;4.55;4.15;;;22.50;67.60;;;;;;6350264;27;89065;-71
2023/04/11 05:33:49;;;;;;;5.05;4.55;;;22.40;67.50;;;;;;6337327;27;90014;-70
2023/04/11 05:36:51;;;;;;;4.97;4.10;;;22.50;67.60;;;;;;6339890;27;89061;-71
2023/04/11 05:39:55;;;;;;;4.70;4.30;;;22.50;67.60;;;;;;6339408;27;89111;-70
2023/04/11 05:42:58;;;;;;;4.60;4.20;;;22.50;67.60;;;;;;6338624;27;89015;-71
2023/04/11 05:46:00;;;;;;;4.28;3.97;;;22.50;67.50;;;;;;6336402;27;89171;-71
2023/04/11 05:49:02;;;;;;;4.50;4.10;;;22.50;67.50;;;;;;6353265;27;89177;-71
2023/04/11 05:52:04;;;;;;;5.13;4.32;;;22.50;67.50;;;;;;6341579;27;87885;-71
2023/04/11 05:55:07;;;;;;;4.15;3.80;;;22.50;67.40;;;;;;6356284;27;88190;-71
2023/04/11 05:58:11;;;;;;;4.43;4.03;;;22.50;67.40;;;;;;6343051;27;88484;-70
2023/04/11 06:01:17;;;;;;;4.25;3.85;;;22.50;67.40;;;;;;6353613;27;89021;-70
2023/04/11 06:04:19;;;;;;;4.50;4.10;;;22.50;67.40;;;;;;6336254;27;90236;-71
2023/04/11 06:07:21;;;;;;;4.10;3.80;;;22.50;67.40;;;;;;6332654;27;89461;-70
2023/04/11 06:10:23;;;;;;;4.28;3.88;;;22.50;67.40;;;;;;6348288;27;89018;-70
2023/04/11 06:13:27;;;;;;;4.40;4.00;;;22.50;67.40;;;;;;6330854;27;89458;-70
2023/04/11 06:16:31;;;;;;;4.25;3.85;;;22.50;67.40;;;;;;6332154;27;89040;-70
2023/04/11 06:19:33;;;;;;;4.60;3.80;;;22.50;67.40;;;;;;6340839;27;89186;-71
2023/04/11 06:22:35;;;;;;;4.20;3.80;;;22.50;67.40;;;;;;6337170;27;89021;-71
2023/04/11 06:25:37;;;;;;;4.45;4.05;;;22.60;67.50;;;;;;6344479;27;88278;-71
2023/04/11 06:28:40;;;;;;;4.63;3.95;;;22.50;67.40;;;;;;6344805;27;89027;-70
2023/04/11 06:31:42;;;;;;;4.30;3.90;;;22.60;67.40;;;;;;6345374;27;88438;-70
2023/04/11 06:34:44;;;;;;;4.15;3.85;;;22.60;67.40;;;;;;6357026;27;90137;-71
2023/04/11 06:37:46;;;;;;;4.30;3.90;;;22.60;67.40;;;;;;6342284;27;89049;-70
2023/04/11 06:40:50;;;;;;;4.55;4.10;;;22.60;67.40;;;;;;6345975;27;89001;-70
2023/04/11 06:43:53;;;;;;;4.00;3.70;;;22.60;67.40;;;;;;6337554;27;87867;-71
2023/04/11 06:46:55;;;;;;;4.20;3.90;;;22.50;67.40;;;;;;6336031;27;89089;-71
2023/04/11 06:49:58;;;;;;;4.47;4.07;;;22.60;67.50;;;;;;6339635;27;89049;-71
2023/04/11 06:53:00;;;;;;;4.40;4.00;;;22.60;67.40;;;;;;6360814;27;89091;-71
2023/04/11 06:56:02;;;;;;;4.35;3.95;;;22.60;67.50;;;;;;6350794;27;88582;-70
2023/04/11 06:59:05;;;;;;;4.40;4.00;;;22.60;67.50;;;;;;6334486;27;89140;-70
2023/04/11 07:02:07;;;;;;;3.60;3.30;;;22.60;67.50;;;;;;6342377;27;88973;-70
2023/04/11 07:05:10;;;;;;;4.38;3.97;;;22.60;67.60;;;;;;6357055;27;89985;-70
2023/04/11 07:08:11;;;;;;;4.22;3.88;;;22.60;67.50;;;;;;6346009;27;87988;-70
2023/04/11 07:11:13;;;;;;;4.40;4.00;;;22.60;67.50;;;;;;6348702;27;89413;-70
2023/04/11 07:14:17;;;;;;;4.40;3.80;;;22.60;67.50;;;;;;6348667;27;89081;-70
2023/04/11 07:17:19;;;;;;;4.10;3.78;;;22.60;67.50;;;;;;6344593;27;89351;-70
2023/04/11 07:20:21;;;;;;;4.30;3.90;;;22.60;67.50;;;;;;6338532;27;89049;-70
2023/04/11 07:23:23;;;;;;;4.50;4.10;;;22.60;67.40;;;;;;6342090;27;89147;-71
2023/04/11 07:26:26;;;;;;;4.30;3.90;;;22.60;67.50;;;;;;6348682;27;88201;-71
2023/04/11 07:29:29;;;;;;;4.60;4.20;;;22.60;67.40;;;;;;6343485;27;89073;-70
2023/04/11 07:32:31;;;;;;;4.45;4.05;;;22.60;67.40;;;;;;6347670;27;89050;-70
2023/04/11 07:35:34;;;;;;;4.50;4.10;;;22.60;67.50;;;;;;6343988;27;89969;-70
2023/04/11 07:38:36;;;;;;;5.07;4.38;;;22.60;67.50;;;;;;6338953;27;87685;-71
2023/04/11 07:41:38;;;;;;;5.07;4.57;;;22.60;67.50;;;;;;6343687;27;87841;-71
2023/04/11 07:44:42;;;;;;;4.75;4.35;;;22.60;67.50;;;;;;6350375;27;89092;-70
2023/04/11 07:47:44;;;;;;;4.72;4.32;;;22.70;67.50;;;;;;6338458;27;89125;-70
2023/04/11 07:50:46;;;;;;;4.85;4.45;;;22.70;67.60;;;;;;6343287;27;88939;-70
2023/04/11 07:53:48;;;;;;;4.80;4.40;;;22.70;67.60;;;;;;6345355;27;89061;-70
2023/04/11 07:56:50;;;;;;;5.18;4.70;;;22.70;67.60;;;;;;6354232;27;88363;-71
2023/04/11 07:59:53;;;;;;;5.07;4.60;;;22.60;67.50;;;;;;6343899;27;89091;-70
2023/04/11 08:02:58;;;;;;;4.82;4.43;;;22.70;67.60;;;;;;6348617;27;90802;-70
2023/04/11 08:06:00;;;;;;;5.72;5.22;;;22.70;67.60;;;;;;6357614;27;90600;-70
2023/04/11 08:09:02;;;;;;;5.60;5.10;;;22.70;67.60;;;;;;6345545;27;88489;-71
2023/04/11 08:12:05;;;;;;;5.50;5.00;;;22.70;67.60;;;;;;6344137;27;88746;-70
2023/04/11 08:15:09;;;;;;;5.68;5.13;;;22.70;67.60;;;;;;6358047;27;89389;-70
2023/04/11 08:18:11;;;;;;;6.03;5.25;;;22.70;67.60;;;;;;6345121;27;87888;-71
2023/04/11 08:21:13;;;;;;;5.47;4.97;;;22.70;67.60;;;;;;6345134;27;88005;-71
2023/04/11 08:24:16;;;;;;;5.40;4.90;;;22.70;67.60;;;;;;6353768;27;89110;-70
2023/04/11 08:27:18;;;;;;;5.47;4.97;;;22.70;67.60;;;;;;6341291;27;88710;-71
2023/04/11 08:30:21;;;;;;;5.57;5.00;;;22.70;67.60;;;;;;6349220;27;89116;-70
2023/04/11 08:33:24;;;;;;;5.95;5.45;;;22.70;67.60;;;;;;6357016;27;89132;-71
2023/04/11 08:36:26;;;;;;;5.82;5.32;;;22.70;67.60;;;;;;6332599;27;89986;-70
2023/04/11 08:39:28;;;;;;;5.90;5.40;;;22.70;67.60;;;;;;6346344;27;89185;-70
2023/04/11 08:42:32;;;;;;;5.53;5.03;;;22.70;67.60;;;;;;6333065;27;88149;-70
2023/04/11 08:45:36;;;;;;;6.10;5.60;;;22.70;67.60;;;;;;6341909;27;89007;-70
2023/04/11 08:48:39;;;;;;;5.90;5.40;;;22.70;67.60;;;;;;6344738;27;89161;-70
2023/04/11 08:51:43;;;;;;;5.70;5.20;;;22.70;67.70;;;;;;6343681;27;89070;-70
2023/04/11 08:54:45;;;;;;;5.80;5.28;;;22.70;67.70;;;;;;6350067;27;89540;-70
2023/04/11 08:57:47;;;;;;;6.00;5.45;;;22.70;67.70;;;;;;6345831;27;88408;-70
2023/04/11 09:00:50;;;;;;;6.03;5.53;;;22.70;67.70;;;;;;6345555;27;89050;-69
2023/04/11 09:03:53;;;;;;;6.35;5.75;;;22.70;67.60;;;;;;6348016;27;89102;-70
2023/04/11 09:06:58;;;;;;;6.55;5.95;;;22.70;67.60;;;;;;6357629;27;88938;-70
2023/04/11 09:10:18;;;;;;;6.38;5.78;;;22.70;68.60;;;;;;6356491;27;89091;-71
2023/04/11 09:13:22;;;;;;;6.90;6.20;;;22.70;67.70;;;;;;6344213;27;89045;-70
2023/04/11 09:16:26;;;;;;;5.95;5.45;;;22.70;67.70;;;;;;6333979;27;89945;-70
2023/04/11 09:19:29;;;;;;;6.03;5.53;;;22.70;67.70;;;;;;6345030;27;91040;-70
2023/04/11 09:22:36;;;;;;;6.18;5.57;;;22.70;67.70;;;;;;6338117;27;89458;-70
2023/04/11 09:25:44;;;;;;;6.10;5.55;;;22.70;67.70;;;;;;6346449;27;89030;-71
2023/04/11 09:28:52;;;;;;;6.15;5.55;;;22.70;67.70;;;;;;6334994;27;88322;-69
2023/04/11 09:31:55;;;;;;;6.10;5.60;;;22.70;67.70;;;;;;6342494;27;89321;-70
2023/04/11 09:35:21;;;;;;;6.53;5.93;;;22.70;67.70;;;;;;6345029;27;89155;-70
2023/04/11 09:38:31;;;;;;;6.40;5.80;;;22.70;67.80;;;;;;6341984;27;90206;-69
2023/04/11 09:41:35;;;;;;;6.93;6.22;;;22.70;67.80;;;;;;6342490;27;89098;-69
2023/04/11 09:44:38;;;;;;;6.45;5.85;;;22.70;67.80;;;;;;6354120;27;87841;-70
2023/04/11 09:47:41;;;;;;;5.70;5.20;;;22.70;67.80;;;;;;6355459;27;89105;-70
2023/04/11 09:50:44;;;;;;;6.25;5.65;;;22.70;67.80;;;;;;6343960;27;89066;-70
2023/04/11 09:53:47;;;;;;;5.93;5.43;;;22.70;67.90;;;;;;6339603;27;89065;-70
2023/04/11 09:56:49;;;;;;;6.03;5.53;;;22.70;67.90;;;;;;6354410;27;89124;-70
2023/04/11 09:59:54;;;;;;;5.97;5.45;;;22.70;67.90;;;;;;6342996;27;88362;-70
2023/04/11 10:02:57;;;;;;;5.93;5.43;;;22.70;67.90;;;;;;6356915;27;89070;-70
2023/04/11 10:06:01;;;;;;;5.95;5.45;;;22.70;67.90;;;;;;6341906;27;89068;-70
2023/04/11 10:09:08;;;;;;;6.45;5.85;;;22.70;68.00;;;;;;6355181;27;89964;-70
2023/04/11 10:12:10;;;;;;;6.00;5.40;;;22.70;68.10;;;;;;6332304;27;89061;-70
2023/04/11 10:15:13;;;;;;;5.88;5.38;;;22.60;68.10;;;;;;6348009;27;89079;-69
2023/04/11 10:18:16;;;;;;;6.07;5.57;;;22.60;68.10;;;;;;6361559;27;89022;-69
2023/04/11 10:21:40;;;;;;;5.60;5.10;;;22.60;68.10;;;;;;6337548;27;89120;-70
2023/04/11 10:25:18;;;;;;;5.80;5.20;;;22.60;68.10;;;;;;6342613;27;88024;-69
2023/04/11 10:28:34;;;;;;;5.65;5.15;;;22.60;68.10;;;;;;6336666;27;89415;-69
2023/04/11 10:32:08;;;;;;;5.82;5.30;;;22.60;69.10;;;;;;6348478;27;88685;-69
2023/04/11 10:35:28;;;;;;;5.68;5.18;;;22.60;68.20;;;;;;6348251;27;89030;-69
2023/04/11 10:38:47;;;;;;;5.93;5.43;;;22.60;68.20;;;;;;6333796;27;89399;-69
2023/04/11 10:41:49;;;;;;;5.65;5.15;;;22.60;68.30;;;;;;6339815;27;90005;-69
2023/04/11 10:45:14;;;;;;;6.20;5.60;;;22.60;68.80;;;;;;6337053;27;89057;-70
2023/04/11 10:48:16;;;;;;;5.28;4.78;;;22.60;68.20;;;;;;6339197;27;89427;-70
2023/04/11 10:51:26;;;;;;;6.40;5.80;;;22.60;68.20;;;;;;6337377;27;88913;-70
2023/04/11 10:54:28;;;;;;;5.57;5.03;;;22.60;68.20;;;;;;6350265;27;89041;-69
2023/04/11 10:58:03;;;;;;;5.75;5.18;;;22.60;68.10;;;;;;6348606;27;88944;-70
2023/04/11 11:01:16;;;;;;;5.82;5.30;;;22.60;68.20;;;;;;6334913;27;89124;-69
2023/04/11 11:04:18;;;;;;;5.53;5.03;;;22.70;68.20;;;;;;6338781;27;88506;-70
2023/04/11 11:07:22;;;;;;;5.65;5.15;;;22.60;68.20;;;;;;6349434;27;89192;-70
2023/04/11 11:10:37;;;;;;;5.50;5.00;;;22.60;68.20;;;;;;6360070;27;89242;-70
2023/04/11 11:13:40;;;;;;;5.28;4.80;;;22.60;68.20;;;;;;6338673;27;90108;-70
2023/04/11 11:16:46;;;;;;;5.35;4.85;;;22.70;68.30;;;;;;6340540;27;89615;-70
2023/04/11 11:19:49;;;;;;;5.32;4.82;;;22.70;68.30;;;;;;6350504;27;89006;-70
2023/04/11 11:23:05;;;;;;;5.10;4.70;;;22.70;68.30;;;;;;6342693;27;89381;-69
2023/04/11 11:26:07;;;;;;;5.32;4.82;;;22.70;68.30;;;;;;6346652;27;89037;-70
2023/04/11 11:29:10;;;;;;;5.40;4.90;;;22.70;68.20;;;;;;6334599;27;88943;-70
2023/04/11 11:32:21;;;;;;;5.20;4.70;;;22.70;68.20;;;;;;6354055;27;89183;-70
2023/04/11 11:35:23;;;;;;;4.97;4.57;;;22.70;68.20;;;;;;6346968;27;88397;-70
2023/04/11 11:38:29;;;;;;;5.30;4.80;;;22.70;68.20;;;;;;6343907;27;88998;-70
2023/04/11 11:41:31;;;;;;;5.45;4.95;;;22.70;68.30;;;;;;6357167;27;89132;-71
2023/04/11 11:44:33;;;;;;;5.65;4.97;;;22.60;68.20;;;;;;6334912;27;88746;-70
2023/04/11 11:47:42;;;;;;;5.13;4.63;;;22.70;68.30;;;;;;6347496;27;89054;-70
2023/04/11 11:50:44;;;;;;;5.15;4.75;;;22.70;68.30;;;;;;6347946;27;87895;-70
2023/04/11 11:54:03;;;;;;;4.95;4.45;;;22.70;68.30;;;;;;6357703;27;89152;-70
2023/04/11 11:57:05;;;;;;;5.38;4.88;;;22.70;68.30;;;;;;6335492;27;89283;-70
2023/04/11 12:00:09;;;;;;;5.40;4.90;;;22.70;68.30;;;;;;6342752;27;89036;-70
2023/04/11 12:03:11;;;;;;;4.53;4.13;;;22.70;68.30;;;;;;6357804;27;89259;-70
2023/04/11 12:06:14;;;;;;;4.88;4.47;;;22.70;68.30;;;;;;6359251;27;88442;-70
2023/04/11 12:09:18;;;;;;;5.15;4.68;;;22.70;68.30;;;;;;6337168;27;89051;-70
2023/04/11 12:12:20;;;;;;;4.90;4.50;;;22.70;68.30;;;;;;6354560;27;89021;-70
2023/04/11 12:15:23;;;;;;;4.70;4.30;;;22.70;68.30;;;;;;6344320;27;90360;-69
2023/04/11 12:18:27;;;;;;;5.13;4.65;;;22.70;68.30;;;;;;6341624;27;88987;-70
2023/04/11 12:21:30;;;;;;;4.95;4.55;;;22.70;68.30;;;;;;6341998;27;89141;-69
2023/04/11 12:24:34;;;;;;;4.63;4.22;;;22.70;68.30;;;;;;6354310;27;89060;-69
2023/04/11 12:27:37;;;;;;;4.85;4.45;;;22.70;68.30;;;;;;6339187;27;89379;-69
2023/04/11 12:30:39;;;;;;;4.82;4.43;;;22.70;68.30;;;;;;6347343;27;88023;-69
2023/04/11 12:33:41;;;;;;;5.40;4.95;;;22.70;68.30;;;;;;6337549;27;88937;-70
2023/04/11 12:36:43;;;;;;;5.30;4.80;;;22.70;68.30;;;;;;6342190;27;87334;-69
2023/04/11 12:39:46;;;;;;;5.30;4.80;;;22.70;68.30;;;;;;6343822;27;89124;-69
2023/04/11 12:42:49;;;;;;;4.65;4.25;;;22.70;68.20;;;;;;6346615;27;89148;-70
2023/04/11 12:45:51;;;;;;;5.05;4.65;;;22.70;68.20;;;;;;6347769;27;90019;-70
2023/04/11 12:48:53;;;;;;;5.30;4.80;;;22.70;68.20;;;;;;6354913;27;88281;-70
2023/04/11 12:51:55;;;;;;;5.20;4.75;;;22.70;68.20;;;;;;6344836;27;88115;-70
2023/04/11 12:54:58;;;;;;;5.75;4.95;;;22.70;68.20;;;;;;6355715;27;89376;-70
2023/04/11 12:58:00;;;;;;;4.88;4.47;;;22.70;68.20;;;;;;6346519;27;89112;-69
2023/04/11 13:01:04;;;;;;;5.03;4.63;;;22.70;68.10;;;;;;6357891;27;89044;-69
2023/04/11 13:04:06;;;;;;;4.63;4.22;;;22.70;68.20;;;;;;6344546;27;89079;-70
2023/04/11 13:07:08;;;;;;;4.70;4.30;;;22.70;68.10;;;;;;6348867;27;87220;-70
2023/04/11 13:10:12;;;;;;;4.82;4.43;;;22.70;68.10;;;;;;6356040;27;89496;-70
2023/04/11 13:13:14;;;;;;;4.88;4.40;;;22.70;68.20;;;;;;6330914;27;89091;-70
2023/04/11 13:16:16;;;;;;;4.78;4.38;;;22.70;68.10;;;;;;6333316;27;91922;-70
2023/04/11 13:19:18;;;;;;;4.80;4.40;;;22.70;68.20;;;;;;6346024;27;89097;-70
2023/04/11 13:22:20;;;;;;;4.80;4.40;;;22.70;68.10;;;;;;6336420;27;89163;-70
2023/04/11 13:25:23;;;;;;;5.07;4.57;;;22.70;68.10;;;;;;6343649;27;89144;-70
2023/04/11 13:28:25;;;;;;;5.15;4.65;;;22.70;68.20;;;;;;6344058;27;89425;-70
2023/04/11 13:31:27;;;;;;;4.70;4.30;;;22.70;68.10;;;;;;6345984;27;89075;-70
2023/04/11 13:34:29;;;;;;;4.60;4.20;;;22.80;68.20;;;;;;6331836;27;89125;-70
2023/04/11 13:37:31;;;;;;;4.68;4.28;;;22.80;68.20;;;;;;6341865;27;88349;-70
2023/04/11 13:40:37;;;;;;;5.03;4.63;;;22.80;68.20;;;;;;6337878;27;89054;-70
2023/04/11 13:43:38;;;;;;;4.60;4.20;;;22.70;68.20;;;;;;6344722;27;88203;-70
2023/04/11 13:46:40;;;;;;;4.70;4.30;;;22.80;68.20;;;;;;6334161;27;90412;-70
2023/04/11 13:49:43;;;;;;;5.00;4.50;;;22.70;68.10;;;;;;6355779;27;89076;-70
2023/04/11 13:52:45;;;;;;;5.53;4.90;;;22.80;68.30;;;;;;6338260;27;87918;-70
2023/04/11 13:55:48;;;;;;;5.20;4.70;;;22.70;68.10;;;;;;6350483;27;88103;-70
2023/04/11 13:58:50;;;;;;;4.68;4.28;;;22.70;68.20;;;;;;6337812;27;89529;-70
2023/04/11 14:01:52;;;;;;;5.03;4.57;;;22.80;68.30;;;;;;6354202;27;88933;-70
2023/04/11 14:04:55;;;;;;;5.00;4.50;;;22.80;68.30;;;;;;6360236;27;89452;-71
2023/04/11 14:07:57;;;;;;;4.53;4.13;;;22.80;68.30;;;;;;6337680;27;88309;-70
2023/04/11 14:11:00;;;;;;;4.80;4.40;;;22.70;68.20;;;;;;6336587;27;89440;-71
2023/04/11 14:14:02;;;;;;;4.75;4.35;;;22.70;68.30;;;;;;6348808;27;89483;-71
2023/04/11 14:17:04;;;;;;;4.57;4.18;;;22.80;68.30;;;;;;6349323;27;90079;-71
2023/04/11 14:20:08;;;;;;;4.90;4.50;;;22.80;68.30;;;;;;6350400;27;90415;-71
2023/04/11 14:23:12;;;;;;;5.00;4.60;;;22.80;68.40;;;;;;6352005;27;89099;-71
2023/04/11 14:26:15;;;;;;;4.75;4.35;;;22.80;68.30;;;;;;6356187;27;89309;-71
2023/04/11 14:29:17;;;;;;;4.50;4.10;;;22.80;68.30;;;;;;6336961;27;89046;-70
2023/04/11 14:32:19;;;;;;;4.70;4.30;;;22.80;68.30;;;;;;6336482;27;89104;-71
2023/04/11 14:35:21;;;;;;;4.50;4.10;;;22.80;68.30;;;;;;6337789;27;89066;-71
2023/04/11 14:38:24;;;;;;;5.05;4.65;;;22.80;68.30;;;;;;6338725;27;88594;-71
2023/04/11 14:41:27;;;;;;;4.70;4.30;;;22.80;68.30;;;;;;6359587;27;89360;-71
2023/04/11 14:44:29;;;;;;;4.60;4.20;;;22.80;68.30;;;;;;6335709;27;89197;-71
2023/04/11 14:47:31;;;;;;;4.70;4.30;;;22.80;68.80;;;;;;6335171;27;91424;-71
2023/04/11 14:50:33;;;;;;;4.68;4.28;;;22.70;68.30;;;;;;6348584;27;89114;-71
2023/04/11 14:53:35;;;;;;;4.95;4.55;;;22.80;69.30;;;;;;6347335;27;89038;-71
2023/04/11 14:56:39;;;;;;;4.80;4.40;;;22.80;68.40;;;;;;6354214;27;89091;-71
2023/04/11 14:59:42;;;;;;;4.88;4.40;;;22.80;68.40;;;;;;6347011;27;89085;-71
2023/04/11 15:02:45;;;;;;;4.32;4.03;;;22.80;68.40;;;;;;6359929;27;88927;-70
2023/04/11 15:05:47;;;;;;;4.63;4.22;;;22.80;68.40;;;;;;6347687;27;89184;-71
2023/04/11 15:08:49;;;;;;;4.60;4.20;;;22.80;68.40;;;;;;6349009;27;88243;-71
2023/04/11 15:11:53;;;;;;;4.80;4.30;;;22.80;68.30;;;;;;6357059;27;89043;-71
2023/04/11 15:14:55;;;;;;;4.70;4.25;;;22.80;68.40;;;;;;6350206;27;89146;-70
2023/04/11 15:18:24;;;;;;;4.57;4.18;;;22.80;68.40;;;;;;6335315;27;90363;-70
2023/04/11 15:21:26;;;;;;;4.72;4.32;;;22.80;68.30;;;;;;6314237;27;89168;-71
2023/04/11 15:24:29;;;;;;;4.80;4.40;;;22.80;68.40;;;;;;6354281;27;89067;-70
2023/04/11 15:27:32;;;;;;;4.57;4.18;;;22.80;68.40;;;;;;6353639;27;89061;-71
2023/04/11 15:30:34;;;;;;;4.60;4.20;;;22.80;68.40;;;;;;6348156;27;89615;-70
2023/04/11 15:33:37;;;;;;;4.90;4.50;;;22.80;68.40;;;;;;6332956;27;89278;-71
2023/04/11 15:36:41;;;;;;;5.25;4.75;;;22.80;68.40;;;;;;6347979;27;89651;-70
2023/04/11 15:39:43;;;;;;;4.78;4.38;;;22.80;68.40;;;;;;6346266;27;88208;-70
2023/04/11 15:42:48;;;;;;;4.70;4.30;;;22.80;68.40;;;;;;6334554;27;89181;-70
2023/04/11 15:45:51;;;;;;;4.80;4.40;;;22.70;68.30;;;;;;6347397;27;88927;-70
2023/04/11 15:48:53;;;;;;;4.82;4.40;;;22.80;68.40;;;;;;6333972;27;89876;-70
2023/04/11 15:51:55;;;;;;;5.18;4.75;;;22.80;68.40;;;;;;6340723;27;89052;-70
2023/04/11 15:54:57;;;;;;;5.40;4.90;;;22.80;68.40;;;;;;6352656;27;88838;-70
2023/04/11 15:58:00;;;;;;;5.25;4.75;;;22.80;68.40;;;;;;6334910;27;87966;-70